Time;durP1;ratioP1;P1;durP2;ratioP2;P2;SDS_P1;SDS_P2;PMS_P1;PMS_P2;Temp;Humidity;BMP_temperature;BMP_pressure;BME280_temperature;BME280_humidity;BME280_pressure;Samples;Min_cycle;Max_cycle;Signal;HPM_P1;HPM_P2
2023/10/06 00:00:26;;;;;;;;;;;18.10;86.80;;;;;;4933099;29;20382;-74
2023/10/06 00:02:52;;;;;;;;;;;18.10;86.80;;;;;;4933129;29;19910;-74
2023/10/06 00:05:19;;;;;;;;;;;18.10;86.80;;;;;;4933156;29;19919;-74
2023/10/06 00:07:45;;;;;;;;;;;18.10;86.80;;;;;;4933139;29;19942;-74
2023/10/06 00:10:44;;;;;;;;;;;18.00;86.80;;;;;;4932976;29;19914;-74
2023/10/06 00:13:05;;;;;;;;;;;18.10;86.80;;;;;;4931696;29;19945;-74
2023/10/06 00:15:40;;;;;;;;;;;18.00;86.70;;;;;;4932844;29;19919;-74
2023/10/06 00:18:09;;;;;;;;;;;18.10;86.80;;;;;;4932934;29;20009;-74
2023/10/06 00:20:55;;;;;;;;;;;18.10;86.80;;;;;;4933224;29;19915;-74
2023/10/06 00:23:22;;;;;;;;;;;18.00;86.80;;;;;;4931620;29;19911;-74
2023/10/06 00:25:58;;;;;;;;;;;18.00;86.70;;;;;;4933067;29;19958;-74
2023/10/06 00:28:26;;;;;;;;;;;18.00;86.80;;;;;;4932782;29;19917;-74
2023/10/06 00:30:56;;;;;;;;;;;18.00;86.80;;;;;;4932667;29;20442;-75
2023/10/06 00:33:23;;;;;;;;;;;18.00;86.80;;;;;;4932581;29;19974;-74
2023/10/06 00:35:48;;;;;;;;;;;18.10;86.90;;;;;;4932613;29;19918;-74
2023/10/06 00:38:17;;;;;;;;;;;18.00;86.70;;;;;;4932606;29;19919;-74
2023/10/06 00:40:51;;;;;;;;;;;18.00;86.70;;;;;;4931240;29;19919;-73
2023/10/06 00:43:36;;;;;;;;;;;18.00;86.70;;;;;;4931103;29;19963;-74
2023/10/06 00:46:06;;;;;;;;;;;17.90;86.70;;;;;;4932648;29;19918;-74
2023/10/06 00:48:32;;;;;;;;;;;17.90;86.70;;;;;;4932337;29;19970;-74
2023/10/06 00:51:01;;;;;;;;;;;17.90;86.70;;;;;;4932278;29;19919;-74
2023/10/06 00:53:31;;;;;;;;;;;17.90;86.80;;;;;;4932145;29;19931;-74
2023/10/06 00:55:59;;;;;;;;;;;17.90;86.80;;;;;;4930935;29;19910;-74
2023/10/06 00:58:26;;;;;;;;;;;17.90;86.90;;;;;;4931931;29;19932;-74
2023/10/06 01:00:52;;;;;;;;;;;17.90;86.90;;;;;;4932083;29;20270;-74
2023/10/06 01:03:18;;;;;;;;;;;17.90;86.90;;;;;;4932367;29;19919;-74
2023/10/06 01:05:45;;;;;;;;;;;17.90;86.90;;;;;;4931994;29;19970;-74
2023/10/06 01:08:12;;;;;;;;;;;17.90;86.90;;;;;;4931943;29;19911;-74
2023/10/06 01:10:40;;;;;;;;;;;18.00;86.90;;;;;;4930418;29;19914;-74
2023/10/06 01:13:12;;;;;;;;;;;18.00;86.90;;;;;;4931760;29;19923;-74
2023/10/06 01:15:52;;;;;;;;;;;18.00;86.90;;;;;;4931912;29;19944;-74
2023/10/06 01:18:24;;;;;;;;;;;18.00;86.90;;;;;;4931580;29;19918;-74
2023/10/06 01:20:50;;;;;;;;;;;18.00;87.00;;;;;;4931399;29;19961;-74
2023/10/06 01:23:27;;;;;;;;;;;18.00;86.90;;;;;;4931599;29;19916;-74
2023/10/06 01:25:54;;;;;;;;;;;18.00;87.00;;;;;;4931675;29;19911;-74
2023/10/06 01:28:20;;;;;;;;;;;18.00;86.90;;;;;;4931633;29;19963;-73
2023/10/06 01:30:46;;;;;;;;;;;18.10;87.00;;;;;;4931423;29;19911;-74
2023/10/06 01:33:11;;;;;;;;;;;18.10;87.00;;;;;;4931355;29;19961;-74
2023/10/06 01:35:42;;;;;;;;;;;18.00;86.90;;;;;;4931549;29;19914;-74
2023/10/06 01:38:14;;;;;;;;;;;18.00;86.90;;;;;;4931393;29;20306;-74
2023/10/06 01:40:43;;;;;;;;;;;18.10;86.90;;;;;;4930094;29;19911;-74
2023/10/06 01:43:11;;;;;;;;;;;18.00;86.80;;;;;;4914858;29;19938;-74
2023/10/06 01:45:43;;;;;;;;;;;18.00;86.80;;;;;;4931822;29;19914;-74
2023/10/06 01:50:41;;;;;;;;;;;17.90;86.90;;;;;;4930027;29;19914;-74
2023/10/06 01:53:07;;;;;;;;;;;17.80;86.80;;;;;;4931109;29;19914;-74
2023/10/06 01:55:37;;;;;;;;;;;17.80;86.80;;;;;;4929915;29;19915;-74
2023/10/06 01:58:11;;;;;;;;;;;17.80;86.80;;;;;;4931316;29;19926;-74
2023/10/06 02:00:37;;;;;;;;;;;17.80;86.90;;;;;;4931148;29;20028;-74
2023/10/06 02:03:03;;;;;;;;;;;17.80;86.90;;;;;;4930993;29;19970;-74
2023/10/06 02:05:29;;;;;;;;;;;17.80;86.90;;;;;;4930432;29;20355;-74
2023/10/06 02:08:01;;;;;;;;;;;17.80;86.90;;;;;;4930781;29;19990;-74
2023/10/06 02:10:27;;;;;;;;;;;17.80;86.90;;;;;;4930885;29;20297;-74
2023/10/06 02:12:52;;;;;;;;;;;17.80;86.90;;;;;;4930839;29;19915;-74
2023/10/06 02:15:18;;;;;;;;;;;17.80;86.90;;;;;;4930759;29;19977;-74
2023/10/06 02:17:44;;;;;;;;;;;17.80;86.90;;;;;;4930926;29;19977;-73
2023/10/06 02:20:29;;;;;;;;;;;17.80;86.90;;;;;;4930838;29;19958;-74
2023/10/06 02:22:55;;;;;;;;;;;17.70;86.90;;;;;;4930802;29;19951;-74
2023/10/06 02:25:22;;;;;;;;;;;17.70;86.90;;;;;;4930790;29;19921;-74
2023/10/06 02:27:50;;;;;;;;;;;17.70;86.90;;;;;;4930804;29;19955;-74
2023/10/06 02:30:33;;;;;;;;;;;17.70;86.90;;;;;;4930878;29;20006;-74
2023/10/06 02:33:03;;;;;;;;;;;17.70;86.90;;;;;;4930695;29;19919;-74
2023/10/06 02:35:29;;;;;;;;;;;17.70;86.90;;;;;;4930685;29;19915;-74
2023/10/06 02:37:57;;;;;;;;;;;17.80;87.00;;;;;;4929335;29;19923;-74
2023/10/06 02:40:31;;;;;;;;;;;17.80;87.00;;;;;;4930600;29;19926;-74
2023/10/06 02:42:57;;;;;;;;;;;17.80;87.00;;;;;;4930716;29;19981;-74
2023/10/06 02:45:30;;;;;;;;;;;17.80;87.00;;;;;;4930609;29;19974;-74
2023/10/06 02:47:58;;;;;;;;;;;17.80;87.00;;;;;;4930628;29;19951;-74
2023/10/06 02:50:24;;;;;;;;;;;17.80;87.00;;;;;;4930441;29;20390;-73
2023/10/06 02:52:53;;;;;;;;;;;17.80;87.00;;;;;;4930608;29;19950;-74
2023/10/06 02:55:31;;;;;;;;;;;17.90;87.10;;;;;;4930594;29;19977;-74
2023/10/06 02:57:57;;;;;;;;;;;17.90;87.10;;;;;;4930363;29;20302;-74
2023/10/06 03:02:56;;;;;;;;;;;17.90;87.10;;;;;;4930542;29;19954;-74
2023/10/06 03:05:30;;;;;;;;;;;18.00;87.10;;;;;;4930542;29;19915;-74
2023/10/06 03:07:56;;;;;;;;;;;18.00;87.10;;;;;;4930473;29;20281;-74
2023/10/06 03:10:26;;;;;;;;;;;18.00;87.10;;;;;;4930713;29;19915;-74
2023/10/06 03:12:52;;;;;;;;;;;18.00;87.10;;;;;;4930455;29;19930;-74
2023/10/06 03:15:28;;;;;;;;;;;18.00;87.10;;;;;;4931053;29;19919;-74
2023/10/06 03:17:58;;;;;;;;;;;18.10;87.20;;;;;;4932674;29;20276;-74
2023/10/06 03:20:28;;;;;;;;;;;18.10;87.20;;;;;;4932550;29;19990;-73
2023/10/06 03:22:55;;;;;;;;;;;18.10;87.20;;;;;;4933981;29;19954;-74
2023/10/06 03:25:21;;;;;;;;;;;18.10;87.20;;;;;;4933938;29;19918;-74
2023/10/06 03:27:52;;;;;;;;;;;18.10;87.20;;;;;;4933892;29;19919;-74
2023/10/06 03:30:27;;;;;;;;;;;18.10;87.20;;;;;;4933727;29;20367;-74
2023/10/06 03:32:53;;;;;;;;;;;18.10;87.20;;;;;;4933785;29;19911;-74
2023/10/06 03:35:23;;;;;;;;;;;18.20;87.30;;;;;;4933647;29;20353;-74
2023/10/06 03:37:52;;;;;;;;;;;18.20;87.30;;;;;;4933609;29;19921;-74
2023/10/06 03:40:30;;;;;;;;;;;18.20;87.30;;;;;;4933495;29;19918;-73
2023/10/06 03:42:57;;;;;;;;;;;18.20;87.30;;;;;;4933575;29;19922;-74
2023/10/06 03:45:31;;;;;;;;;;;18.20;87.30;;;;;;4932317;29;20299;-74
2023/10/06 03:48:08;;;;;;;;;;;18.20;87.30;;;;;;4932252;29;19919;-74
2023/10/06 03:50:38;;;;;;;;;;;18.20;87.30;;;;;;4933423;29;19922;-74
2023/10/06 03:53:07;;;;;;;;;;;18.20;87.30;;;;;;4933428;29;19911;-74
2023/10/06 03:55:39;;;;;;;;;;;18.30;87.30;;;;;;4933406;29;19919;-74
2023/10/06 03:58:09;;;;;;;;;;;18.30;87.30;;;;;;4933060;29;19993;-74
2023/10/06 04:00:58;;;;;;;;;;;18.30;87.30;;;;;;4933279;29;20006;-74
2023/10/06 04:03:21;;;;;;;;;;;18.30;87.30;;;;;;4932770;29;19914;-74
2023/10/06 04:05:50;;;;;;;;;;;18.30;87.30;;;;;;4933053;29;19922;-74
2023/10/06 04:08:18;;;;;;;;;;;18.30;87.40;;;;;;4932997;29;19910;-74
2023/10/06 04:10:48;;;;;;;;;;;18.40;87.40;;;;;;4933057;29;20186;-73
2023/10/06 04:13:16;;;;;;;;;;;18.40;87.90;;;;;;4932848;29;19915;-74
2023/10/06 04:15:52;;;;;;;;;;;18.40;87.40;;;;;;4932960;29;19993;-74
2023/10/06 04:18:21;;;;;;;;;;;18.40;87.40;;;;;;4932964;29;20323;-73
2023/10/06 04:20:46;;;;;;;;;;;18.40;87.40;;;;;;4932802;29;19915;-74
2023/10/06 04:23:13;;;;;;;;;;;18.40;87.40;;;;;;4932870;29;20272;-74
2023/10/06 04:25:39;;;;;;;;;;;18.40;87.40;;;;;;4932810;29;20361;-74
2023/10/06 04:28:08;;;;;;;;;;;18.30;87.30;;;;;;4931928;28;19970;-74
2023/10/06 04:30:43;;;;;;;;;;;18.30;87.40;;;;;;4932445;29;19970;-74
2023/10/06 04:33:10;;;;;;;;;;;18.40;87.50;;;;;;4932810;29;19935;-74
2023/10/06 04:35:39;;;;;;;;;;;18.40;87.50;;;;;;4932613;29;19925;-74
2023/10/06 04:38:05;;;;;;;;;;;18.40;87.50;;;;;;4932673;29;19930;-74
2023/10/06 04:40:32;;;;;;;;;;;18.40;87.90;;;;;;4931104;29;19931;-74
2023/10/06 04:42:58;;;;;;;;;;;18.40;87.40;;;;;;4932228;29;19922;-74
2023/10/06 04:45:24;;;;;;;;;;;18.40;87.40;;;;;;4931102;29;19911;-74
2023/10/06 04:47:50;;;;;;;;;;;18.40;87.40;;;;;;4932287;29;20009;-74
2023/10/06 04:50:16;;;;;;;;;;;18.40;87.40;;;;;;4932085;29;19925;-74
2023/10/06 04:52:46;;;;;;;;;;;18.40;87.40;;;;;;4932042;29;19911;-74
2023/10/06 04:55:13;;;;;;;;;;;18.40;87.50;;;;;;4932179;29;19926;-74
2023/10/06 04:57:40;;;;;;;;;;;18.40;87.50;;;;;;4931796;29;19934;-74
2023/10/06 05:00:13;;;;;;;;;;;18.40;87.50;;;;;;4932004;29;19911;-74
2023/10/06 05:02:44;;;;;;;;;;;18.40;87.50;;;;;;4932292;29;19938;-74
2023/10/06 05:05:13;;;;;;;;;;;18.40;87.50;;;;;;4930759;29;20465;-74
2023/10/06 05:07:39;;;;;;;;;;;18.30;87.40;;;;;;4931787;29;19934;-74
2023/10/06 05:10:08;;;;;;;;;;;18.30;87.40;;;;;;4931860;29;19915;-74
2023/10/06 05:12:37;;;;;;;;;;;18.30;87.40;;;;;;4932189;29;19926;-74
2023/10/06 05:15:09;;;;;;;;;;;18.30;87.40;;;;;;4931389;29;19953;-74
2023/10/06 05:17:36;;;;;;;;;;;18.20;87.40;;;;;;4931668;29;20058;-74
2023/10/06 05:20:03;;;;;;;;;;;18.30;87.50;;;;;;4931585;29;19923;-74
2023/10/06 05:22:29;;;;;;;;;;;18.30;87.60;;;;;;4931655;29;19917;-74
2023/10/06 05:24:54;;;;;;;;;;;18.30;87.60;;;;;;4931500;29;19928;-74
2023/10/06 05:27:21;;;;;;;;;;;18.30;87.60;;;;;;4931578;29;19915;-74
2023/10/06 05:29:46;;;;;;;;;;;18.30;87.60;;;;;;4931360;29;19926;-74
2023/10/06 05:32:13;;;;;;;;;;;18.20;87.50;;;;;;4931170;29;19914;-74
2023/10/06 05:34:40;;;;;;;;;;;18.30;87.60;;;;;;4931427;29;19962;-74
2023/10/06 05:37:08;;;;;;;;;;;18.30;87.60;;;;;;4931734;29;19915;-74
2023/10/06 05:39:34;;;;;;;;;;;18.30;87.60;;;;;;4931169;29;19911;-74
2023/10/06 05:42:00;;;;;;;;;;;18.30;87.60;;;;;;4931094;29;19918;-75
2023/10/06 05:44:25;;;;;;;;;;;18.30;87.60;;;;;;4931448;29;19915;-74
2023/10/06 05:46:51;;;;;;;;;;;18.30;87.60;;;;;;4931219;29;19915;-74
2023/10/06 05:49:20;;;;;;;;;;;18.30;87.60;;;;;;4929830;29;19914;-74
2023/10/06 05:51:46;;;;;;;;;;;18.30;87.60;;;;;;4931168;29;19941;-74
2023/10/06 05:54:21;;;;;;;;;;;18.40;87.60;;;;;;4930956;29;20283;-75
2023/10/06 05:56:53;;;;;;;;;;;18.40;87.60;;;;;;4930604;29;19926;-74
2023/10/06 05:59:19;;;;;;;;;;;18.40;87.60;;;;;;4930781;29;19915;-74
2023/10/06 06:01:46;;;;;;;;;;;18.40;87.60;;;;;;4929671;29;19926;-74
2023/10/06 06:04:12;;;;;;;;;;;18.40;87.60;;;;;;4930741;29;19961;-74
2023/10/06 06:06:38;;;;;;;;;;;18.50;87.60;;;;;;4930741;29;19942;-74
2023/10/06 06:09:14;;;;;;;;;;;18.50;88.10;;;;;;4929309;29;19915;-72
2023/10/06 06:11:39;;;;;;;;;;;18.50;87.60;;;;;;4931158;29;19910;-74
2023/10/06 06:14:05;;;;;;;;;;;18.50;87.70;;;;;;4930716;29;19940;-74
2023/10/06 06:16:31;;;;;;;;;;;18.50;87.60;;;;;;4913167;29;19919;-74
2023/10/06 06:18:57;;;;;;;;;;;18.50;87.60;;;;;;4930692;29;19911;-75
2023/10/06 06:21:24;;;;;;;;;;;18.50;87.60;;;;;;4930553;29;19911;-74
2023/10/06 06:23:57;;;;;;;;;;;18.60;87.70;;;;;;4930551;29;20367;-74
2023/10/06 06:26:22;;;;;;;;;;;18.60;87.70;;;;;;4930597;29;20325;-74
2023/10/06 06:28:48;;;;;;;;;;;18.60;87.70;;;;;;4929047;29;19915;-74
2023/10/06 06:31:18;;;;;;;;;;;18.60;88.10;;;;;;4930445;29;19965;-74
2023/10/06 06:33:43;;;;;;;;;;;18.60;87.70;;;;;;4929183;29;20298;-74
2023/10/06 06:36:09;;;;;;;;;;;18.60;87.60;;;;;;4930588;29;20010;-74
2023/10/06 06:38:39;;;;;;;;;;;18.60;87.60;;;;;;4929023;29;19963;-74
2023/10/06 06:41:05;;;;;;;;;;;18.60;87.60;;;;;;4930321;29;19923;-74
2023/10/06 06:43:31;;;;;;;;;;;18.50;87.60;;;;;;4930397;29;19918;-74
2023/10/06 06:45:58;;;;;;;;;;;18.50;87.60;;;;;;4929089;29;19922;-66
2023/10/06 06:48:24;;;;;;;;;;;18.50;87.60;;;;;;4930178;29;19950;-75
2023/10/06 06:50:52;;;;;;;;;;;18.60;87.70;;;;;;4931725;29;19963;-75
2023/10/06 06:53:20;;;;;;;;;;;18.60;87.70;;;;;;4934370;29;19911;-74
2023/10/06 06:55:46;;;;;;;;;;;18.60;87.80;;;;;;4932718;29;19922;-75
2023/10/06 06:58:12;;;;;;;;;;;18.60;87.80;;;;;;4933916;29;19923;-75
2023/10/06 07:00:39;;;;;;;;;;;18.60;87.80;;;;;;4933461;29;19915;-74
2023/10/06 07:03:05;;;;;;;;;;;18.60;87.70;;;;;;4933442;29;20323;-74
2023/10/06 07:05:30;;;;;;;;;;;18.60;87.60;;;;;;4933815;29;20009;-75
2023/10/06 07:07:56;;;;;;;;;;;18.50;87.60;;;;;;4933713;29;19919;-75
2023/10/06 07:10:22;;;;;;;;;;;18.50;87.60;;;;;;4932412;29;20018;-74
2023/10/06 07:12:49;;;;;;;;;;;18.50;87.60;;;;;;4932602;29;19919;-75
2023/10/06 07:15:15;;;;;;;;;;;18.50;87.60;;;;;;4933466;29;19993;-74
2023/10/06 07:17:42;;;;;;;;;;;18.50;87.60;;;;;;4933632;29;19918;-74
2023/10/06 07:20:09;;;;;;;;;;;18.40;87.60;;;;;;4933540;29;19922;-74
2023/10/06 07:22:36;;;;;;;;;;;18.40;87.70;;;;;;4933563;29;19970;-75
2023/10/06 07:25:04;;;;;;;;;;;18.40;87.70;;;;;;4933568;29;19950;-74
2023/10/06 07:27:34;;;;;;;;;;;18.40;87.80;;;;;;4933366;29;19921;-75
2023/10/06 07:30:03;;;;;;;;;;;18.40;87.80;;;;;;4933162;29;19926;-74
2023/10/06 07:32:28;;;;;;;;;;;18.50;88.00;;;;;;4933316;29;20010;-74
2023/10/06 07:34:54;;;;;;;;;;;18.50;87.90;;;;;;4933382;29;20022;-74
2023/10/06 07:37:21;;;;;;;;;;;18.50;87.90;;;;;;4933206;29;19915;-75
2023/10/06 07:39:47;;;;;;;;;;;18.60;87.90;;;;;;4933174;29;20267;-74
2023/10/06 07:42:16;;;;;;;;;;;18.60;87.90;;;;;;4933006;29;19935;-75
2023/10/06 07:44:42;;;;;;;;;;;18.70;87.80;;;;;;4932357;29;19918;-75
2023/10/06 07:47:08;;;;;;;;;;;18.60;87.80;;;;;;4932896;29;19915;-74
2023/10/06 07:49:34;;;;;;;;;;;18.70;87.80;;;;;;4932693;29;20122;-75
2023/10/06 07:52:00;;;;;;;;;;;18.70;87.80;;;;;;4932695;29;20009;-74
2023/10/06 07:54:26;;;;;;;;;;;18.60;87.80;;;;;;4932341;29;19962;-75
2023/10/06 07:56:52;;;;;;;;;;;18.70;87.90;;;;;;4932192;29;20166;-75
2023/10/06 07:59:18;;;;;;;;;;;18.80;88.00;;;;;;4932691;29;19941;-75
2023/10/06 08:01:43;;;;;;;;;;;18.80;87.90;;;;;;4933593;29;19911;-74
2023/10/06 08:04:10;;;;;;;;;;;18.80;87.90;;;;;;4934405;29;19922;-75
2023/10/06 08:06:36;;;;;;;;;;;18.90;87.90;;;;;;4933698;29;19961;-76
2023/10/06 08:09:05;;;;;;;;;;;18.90;87.90;;;;;;4933373;29;19910;-75
2023/10/06 08:11:34;;;;;;;;;;;19.00;87.90;;;;;;4933026;29;19926;-76
2023/10/06 08:14:03;;;;;;;;;;;19.00;87.90;;;;;;4932399;29;20561;-76
2023/10/06 08:16:30;;;;;;;;;;;19.00;87.90;;;;;;4932108;29;19911;-74
2023/10/06 08:18:56;;;;;;;;;;;19.00;87.90;;;;;;4931557;29;19918;-74
2023/10/06 08:21:22;;;;;;;;;;;19.00;87.80;;;;;;4932486;29;20422;-74
2023/10/06 08:23:48;;;;;;;;;;;19.00;87.90;;;;;;4932436;29;19970;-75
2023/10/06 08:26:14;;;;;;;;;;;19.00;87.90;;;;;;4932788;29;19919;-75
2023/10/06 08:28:40;;;;;;;;;;;19.00;87.90;;;;;;4933039;29;19915;-75
2023/10/06 08:31:14;;;;;;;;;;;19.10;88.00;;;;;;4932715;29;19962;-75
2023/10/06 08:33:40;;;;;;;;;;;19.10;88.00;;;;;;4932995;29;19919;-74
2023/10/06 08:36:08;;;;;;;;;;;19.20;88.00;;;;;;4932446;29;19966;-75
2023/10/06 08:38:34;;;;;;;;;;;19.20;88.00;;;;;;4932407;29;19915;-73
2023/10/06 08:41:01;;;;;;;;;;;19.20;88.00;;;;;;4932167;29;19993;-74
2023/10/06 08:43:27;;;;;;;;;;;19.30;88.10;;;;;;4934096;29;20119;-73
2023/10/06 08:45:55;;;;;;;;;;;19.30;88.10;;;;;;4929926;29;20423;-74
2023/10/06 08:48:24;;;;;;;;;;;19.40;88.10;;;;;;4932478;29;20311;-74
2023/10/06 08:50:53;;;;;;;;;;;19.40;88.00;;;;;;4932161;29;19915;-74
2023/10/06 08:53:20;;;;;;;;;;;19.50;88.00;;;;;;4932389;29;20009;-75
2023/10/06 08:55:46;;;;;;;;;;;19.50;88.00;;;;;;4931820;29;19933;-74
2023/10/06 08:58:14;;;;;;;;;;;19.50;88.00;;;;;;4931753;29;19927;-77
2023/10/06 09:00:43;;;;;;;;;;;19.60;88.10;;;;;;4928063;29;19950;-76
2023/10/06 09:03:11;;;;;;;;;;;19.60;88.10;;;;;;4931681;29;20057;-76
2023/10/06 09:05:40;;;;;;;;;;;19.60;88.00;;;;;;4933160;29;19918;-79
2023/10/06 09:08:07;;;;;;;;;;;19.60;87.80;;;;;;4932405;29;19918;-78
2023/10/06 09:10:37;;;;;;;;;;;19.60;87.70;;;;;;4932115;29;19919;-76
2023/10/06 09:13:04;;;;;;;;;;;19.50;87.70;;;;;;4929834;29;20525;-75
2023/10/06 09:15:30;;;;;;;;;;;19.50;87.80;;;;;;4931573;29;20049;-76
2023/10/06 09:17:56;;;;;;;;;;;19.50;88.00;;;;;;4931668;29;20014;-76
2023/10/06 09:20:30;;;;;;;;;;;19.50;88.00;;;;;;4931741;29;20005;-76
2023/10/06 09:22:56;;;;;;;;;;;19.60;87.90;;;;;;4931772;29;19914;-76
2023/10/06 09:25:21;;;;;;;;;;;19.50;87.70;;;;;;4931842;29;19915;-76
2023/10/06 09:27:48;;;;;;;;;;;19.50;87.80;;;;;;4931484;29;19970;-75
2023/10/06 09:30:20;;;;;;;;;;;19.50;87.90;;;;;;4929930;29;19934;-75
2023/10/06 09:32:46;;;;;;;;;;;19.50;87.80;;;;;;4931429;29;20050;-74
2023/10/06 09:35:22;;;;;;;;;;;19.40;87.70;;;;;;4931136;29;20255;-76
2023/10/06 09:37:48;;;;;;;;;;;19.50;87.80;;;;;;4928266;29;20368;-73
2023/10/06 09:40:23;;;;;;;;;;;19.50;87.90;;;;;;4930551;29;19910;-74
2023/10/06 09:42:54;;;;;;;;;;;19.60;88.00;;;;;;4930501;29;19930;-74
2023/10/06 09:45:24;;;;;;;;;;;19.60;88.10;;;;;;4930399;29;19929;-74
2023/10/06 09:47:51;;;;;;;;;;;19.70;88.50;;;;;;4930669;29;19930;-74
2023/10/06 09:50:17;;;;;;;;;;;19.70;88.00;;;;;;4931306;29;19922;-74
2023/10/06 09:52:46;;;;;;;;;;;19.80;88.20;;;;;;4931492;29;20010;-75
2023/10/06 09:55:12;;;;;;;;;;;19.90;88.20;;;;;;4930107;29;19921;-74
2023/10/06 09:57:42;;;;;;;;;;;20.10;88.30;;;;;;4931627;29;20279;-74
2023/10/06 10:00:15;;;;;;;;;;;20.20;88.20;;;;;;4930962;29;19923;-73
2023/10/06 10:02:44;;;;;;;;;;;20.40;88.10;;;;;;4930269;29;19997;-75
2023/10/06 10:05:11;;;;;;;;;;;20.40;88.00;;;;;;4931761;29;20359;-77
2023/10/06 10:07:40;;;;;;;;;;;20.50;88.00;;;;;;4931445;29;20247;-78
2023/10/06 10:10:10;;;;;;;;;;;20.50;88.00;;;;;;4931948;29;19938;-72
2023/10/06 10:12:52;;;;;;;;;;;20.50;88.00;;;;;;4914549;29;19915;-73
2023/10/06 10:15:24;;;;;;;;;;;20.60;88.00;;;;;;4931482;29;20267;-77
2023/10/06 10:17:58;;;;;;;;;;;20.70;88.10;;;;;;4931277;29;19918;-75
2023/10/06 10:20:25;;;;;;;;;;;20.70;88.10;;;;;;4931563;29;19918;-74
2023/10/06 10:22:54;;;;;;;;;;;20.80;88.00;;;;;;4931220;29;20005;-73
2023/10/06 10:25:23;;;;;;;;;;;20.80;88.10;;;;;;4930289;29;19915;-71
2023/10/06 10:28:07;;;;;;;;;;;20.90;88.10;;;;;;4930925;29;19954;-72
2023/10/06 10:30:50;;;;;;;;;;;21.00;88.10;;;;;;4930925;29;19910;-72
2023/10/06 10:33:31;;;;;;;;;;;21.00;88.50;;;;;;4931219;29;19915;-71
2023/10/06 10:36:18;;;;;;;;;;;21.00;88.10;;;;;;4931078;29;19950;-71
2023/10/06 10:38:45;;;;;;;;;;;21.00;88.10;;;;;;4931455;29;19918;-72
2023/10/06 10:41:11;;;;;;;;;;;21.20;88.40;;;;;;4931201;29;20006;-75
2023/10/06 10:43:45;;;;;;;;;;;21.30;88.30;;;;;;4930470;29;20209;-73
2023/10/06 10:46:13;;;;;;;;;;;21.40;88.20;;;;;;4931295;29;20451;-73
2023/10/06 10:48:47;;;;;;;;;;;21.60;88.30;;;;;;4931236;29;19955;-73
2023/10/06 10:51:14;;;;;;;;;;;21.70;88.20;;;;;;4931004;29;19959;-75
2023/10/06 10:53:49;;;;;;;;;;;22.10;89.20;;;;;;4929137;29;19919;-71
2023/10/06 10:56:30;;;;;;;;;;;23.00;89.80;;;;;;4930784;29;20045;-75
2023/10/06 10:58:56;;;;;;;;;;;23.70;89.20;;;;;;4929869;29;19927;-73
2023/10/06 11:01:29;;;;;;;;;;;23.90;88.10;;;;;;4914123;29;20268;-73
2023/10/06 11:04:12;;;;;;;;;;;23.90;87.80;;;;;;4931204;29;19919;-77
2023/10/06 11:06:38;;;;;;;;;;;23.80;87.50;;;;;;4930805;29;19947;-72
2023/10/06 11:10:05;;;;;;;;;;;23.60;87.40;;;;;;4930555;29;19915;-75
2023/10/06 11:12:25;;;;;;;;;;;23.40;87.70;;;;;;4925984;29;19919;-79
2023/10/06 11:14:51;;;;;;;;;;;23.30;88.00;;;;;;4928534;29;19923;-79
2023/10/06 11:17:26;;;;;;;;;;;23.50;88.90;;;;;;4931361;29;20453;-76
2023/10/06 11:20:21;;;;;;;;;;;24.00;89.20;;;;;;4931123;29;19911;-76
2023/10/06 11:22:54;;;;;;;;;;;24.50;89.20;;;;;;4931308;29;19918;-76
2023/10/06 11:25:26;;;;;;;;;;;24.80;88.20;;;;;;4931802;29;20326;-77
2023/10/06 11:28:00;;;;;;;;;;;24.60;87.70;;;;;;4931285;29;20033;-77
2023/10/06 11:30:28;;;;;;;;;;;24.50;87.70;;;;;;4914730;29;19915;-77
2023/10/06 11:32:57;;;;;;;;;;;24.40;88.10;;;;;;4931463;29;19961;-80
2023/10/06 11:35:22;;;;;;;;;;;24.40;88.20;;;;;;4930863;29;19978;-79
2023/10/06 11:37:48;;;;;;;;;;;24.30;87.90;;;;;;4934360;29;19914;-76
2023/10/06 11:40:15;;;;;;;;;;;24.10;87.90;;;;;;4933322;29;19970;-78
2023/10/06 11:42:41;;;;;;;;;;;24.00;88.00;;;;;;4934833;29;19970;-78
2023/10/06 11:45:23;;;;;;;;;;;23.90;88.10;;;;;;4934552;29;19934;-78
2023/10/06 11:47:51;;;;;;;;;;;23.90;88.20;;;;;;4931465;29;19915;-76
2023/10/06 11:50:23;;;;;;;;;;;23.80;88.10;;;;;;4933080;29;19922;-75
2023/10/06 11:52:49;;;;;;;;;;;23.70;88.10;;;;;;4933497;29;19918;-76
2023/10/06 11:55:22;;;;;;;;;;;23.50;88.00;;;;;;4932812;29;19966;-76
2023/10/06 11:57:51;;;;;;;;;;;23.30;87.70;;;;;;4933015;29;19922;-77
2023/10/06 12:00:17;;;;;;;;;;;23.00;87.60;;;;;;4932285;29;20002;-81
2023/10/06 12:02:50;;;;;;;;;;;22.80;87.70;;;;;;4933198;29;19929;-72
2023/10/06 12:05:19;;;;;;;;;;;22.60;87.90;;;;;;4932236;29;20257;-72
2023/10/06 12:07:45;;;;;;;;;;;22.70;88.60;;;;;;4932841;29;19973;-74
2023/10/06 12:10:11;;;;;;;;;;;23.00;89.30;;;;;;4932682;29;19934;-72
2023/10/06 12:12:37;;;;;;;;;;;23.70;90.00;;;;;;4934798;29;19915;-79
2023/10/06 12:15:06;;;;;;;;;;;24.30;89.70;;;;;;4934458;29;19918;-77
2023/10/06 12:17:36;;;;;;;;;;;24.70;88.90;;;;;;4932945;29;19922;-75
2023/10/06 12:20:04;;;;;;;;;;;24.80;88.40;;;;;;4930365;29;19942;-76
2023/10/06 12:22:30;;;;;;;;;;;25.00;88.90;;;;;;4931132;29;20761;-76
2023/10/06 12:24:55;;;;;;;;;;;25.40;89.00;;;;;;4932460;29;19919;-73
2023/10/06 12:27:22;;;;;;;;;;;25.60;88.50;;;;;;4931087;29;20322;-74
2023/10/06 12:29:48;;;;;;;;;;;25.50;88.10;;;;;;4932689;29;20001;-77
2023/10/06 12:32:14;;;;;;;;;;;25.60;88.80;;;;;;4931665;29;20331;-76
2023/10/06 12:34:39;;;;;;;;;;;25.70;88.70;;;;;;4932241;29;19946;-78
2023/10/06 12:37:07;;;;;;;;;;;25.70;88.30;;;;;;4933069;29;19970;-79
2023/10/06 12:39:35;;;;;;;;;;;25.50;88.20;;;;;;4933643;29;19915;-77
2023/10/06 12:42:01;;;;;;;;;;;25.30;88.10;;;;;;4933138;29;19915;-73
2023/10/06 12:44:27;;;;;;;;;;;25.10;88.10;;;;;;4932308;29;20454;-80
2023/10/06 12:46:55;;;;;;;;;;;25.00;88.20;;;;;;4931658;29;20018;-70
2023/10/06 12:49:23;;;;;;;;;;;24.80;88.00;;;;;;4931245;29;20276;-77
2023/10/06 12:51:49;;;;;;;;;;;24.50;88.10;;;;;;4932579;29;19950;-77
2023/10/06 12:54:14;;;;;;;;;;;24.40;88.30;;;;;;4933265;29;19966;-75
2023/10/06 12:56:44;;;;;;;;;;;24.20;88.20;;;;;;4933814;29;20002;-78
2023/10/06 12:59:13;;;;;;;;;;;24.00;88.30;;;;;;4932643;29;20366;-74
2023/10/06 13:01:38;;;;;;;;;;;23.90;88.40;;;;;;4932355;29;20001;-76
2023/10/06 13:04:07;;;;;;;;;;;23.90;88.50;;;;;;4932748;29;20407;-79
2023/10/06 13:06:33;;;;;;;;;;;23.80;88.40;;;;;;4932973;29;20307;-75
2023/10/06 13:09:03;;;;;;;;;;;23.60;88.20;;;;;;4933477;29;19953;-81
2023/10/06 13:11:29;;;;;;;;;;;23.60;88.30;;;;;;4932999;29;19911;-75
2023/10/06 13:13:54;;;;;;;;;;;23.40;88.20;;;;;;4929257;29;20410;-71
2023/10/06 13:16:20;;;;;;;;;;;23.40;88.20;;;;;;4932923;29;20402;-78
2023/10/06 13:18:46;;;;;;;;;;;23.30;88.20;;;;;;4933195;29;19934;-82
2023/10/06 13:21:12;;;;;;;;;;;23.30;88.40;;;;;;4933068;29;20283;-77
2023/10/06 13:23:38;;;;;;;;;;;23.20;88.40;;;;;;4931268;29;19915;-74
2023/10/06 13:26:03;;;;;;;;;;;23.20;88.30;;;;;;4932345;29;19914;-76
2023/10/06 13:28:30;;;;;;;;;;;23.20;88.50;;;;;;4933091;29;19915;-76
2023/10/06 13:30:56;;;;;;;;;;;23.20;88.50;;;;;;4932572;29;19918;-83
2023/10/06 13:33:22;;;;;;;;;;;23.30;88.40;;;;;;4931006;29;19962;-75
2023/10/06 13:35:47;;;;;;;;;;;23.30;88.20;;;;;;4930670;29;20391;-76
2023/10/06 13:38:16;;;;;;;;;;;23.20;88.10;;;;;;4931401;29;19914;-78
2023/10/06 13:40:44;;;;;;;;;;;23.10;88.10;;;;;;4929687;29;19997;-76
2023/10/06 13:43:11;;;;;;;;;;;23.00;88.10;;;;;;4929962;29;19923;-75
2023/10/06 13:45:39;;;;;;;;;;;22.90;88.10;;;;;;4928970;29;19986;-75
2023/10/06 13:48:05;;;;;;;;;;;22.90;88.20;;;;;;4929341;29;19926;-75
2023/10/06 13:50:31;;;;;;;;;;;22.80;88.30;;;;;;4930271;29;19941;-75
2023/10/06 13:52:57;;;;;;;;;;;22.80;88.40;;;;;;4928729;29;19919;-75
2023/10/06 13:55:24;;;;;;;;;;;22.80;88.40;;;;;;4928637;29;19923;-74
2023/10/06 13:57:54;;;;;;;;;;;22.80;88.40;;;;;;4927970;29;20312;-75
2023/10/06 14:00:32;;;;;;;;;;;22.80;88.50;;;;;;4928623;29;19927;-79
2023/10/06 14:03:06;;;;;;;;;;;22.80;88.40;;;;;;4931660;29;19934;-77
2023/10/06 14:05:33;;;;;;;;;;;22.80;88.40;;;;;;4931637;29;19923;-76
2023/10/06 14:07:59;;;;;;;;;;;22.80;88.40;;;;;;4927995;29;19919;-77
2023/10/06 14:10:25;;;;;;;;;;;22.90;88.40;;;;;;4929930;29;19922;-77
2023/10/06 14:13:02;;;;;;;;;;;23.00;88.40;;;;;;4931776;29;20255;-79
2023/10/06 14:15:36;;;;;;;;;;;23.00;88.30;;;;;;4959352;28;20483;-77
2023/10/06 14:18:02;;;;;;;;;;;23.10;88.30;;;;;;4931561;29;19910;-82
2023/10/06 14:20:29;;;;;;;;;;;23.10;88.20;;;;;;4930972;29;19915;-79
2023/10/06 14:22:55;;;;;;;;;;;23.10;88.10;;;;;;4930398;29;20009;-78
2023/10/06 14:25:22;;;;;;;;;;;23.10;88.20;;;;;;4930853;29;20021;-78
2023/10/06 14:27:49;;;;;;;;;;;23.10;88.20;;;;;;4929735;29;19910;-76
2023/10/06 14:30:21;;;;;;;;;;;23.10;88.20;;;;;;4931528;29;19918;-84